Time;durP1;ratioP1;P1;durP2;ratioP2;P2;SDS_P1;SDS_P2;PMS_P1;PMS_P2;Temp;Humidity;BMP_temperature;BMP_pressure;BME280_temperature;BME280_humidity;BME280_pressure;Samples;Min_cycle;Max_cycle;Signal;HPM_P1;HPM_P2
2023/02/28 00:00:36;;;;;;;2.47;2.38;;;;;;;-2.20;90.44;102525.03;6085059;23;20122;-74
2023/02/28 00:03:03;;;;;;;2.70;2.60;;;;;;;-1.21;90.04;102667.75;6064251;23;20645;-74
2023/02/28 00:05:30;;;;;;;2.60;2.50;;;;;;;-1.31;90.48;102664.03;6081665;23;20073;-73
2023/02/28 00:07:56;;;;;;;3.22;3.05;;;;;;;-2.07;89.80;102552.84;6032083;23;20025;-73
2023/02/28 00:10:27;;;;;;;2.63;2.53;;;;;;;-1.76;90.75;102615.53;6062699;23;20038;-72
2023/02/28 00:12:59;;;;;;;2.72;2.63;;;;;;;-1.77;90.44;102639.50;6081333;23;20030;-76
2023/02/28 00:15:26;;;;;;;2.60;2.50;;;;;;;-1.92;91.08;102633.94;6082191;23;20030;-76
2023/02/28 00:17:52;;;;;;;2.60;2.50;;;;;;;-1.97;91.91;102635.47;6055705;23;20061;-73
2023/02/28 00:20:19;;;;;;;3.22;2.90;;;;;;;-1.97;93.67;102641.47;6083095;23;20042;-77
2023/02/28 00:22:49;;;;;;;2.60;2.50;;;;;;;-2.01;95.62;102658.50;6037456;23;20033;-73
2023/02/28 00:25:18;;;;;;;2.42;2.33;;;;;;;-2.03;96.88;102656.72;6083959;23;20026;-75
2023/02/28 00:27:45;;;;;;;2.42;2.33;;;;;;;-2.56;96.45;102555.63;6082880;23;20605;-75
2023/02/28 00:30:15;;;;;;;2.35;2.25;;;;;;;-1.87;97.68;102676.97;6081248;23;20038;-75
2023/02/28 00:32:41;;;;;;;2.42;2.33;;;;;;;-1.97;97.43;102656.91;6086107;23;20044;-75
2023/02/28 00:35:09;;;;;;;2.72;2.63;;;;;;;-1.88;98.04;102656.34;6087467;23;20068;-72
2023/02/28 00:37:35;;;;;;;2.50;2.40;;;;;;;-1.83;97.10;102667.63;6030109;23;20020;-74
2023/02/28 00:40:06;;;;;;;2.30;2.20;;;;;;;-2.13;96.92;102619.56;6080395;23;20029;-72
2023/02/28 00:42:35;;;;;;;2.45;2.35;;;;;;;-2.00;96.60;102625.97;6081176;23;20568;-74
2023/02/28 00:45:06;;;;;;;2.60;2.50;;;;;;;-1.70;96.85;102677.50;6080861;23;20022;-74
2023/02/28 00:47:32;;;;;;;4.13;2.63;;;;;;;-1.68;96.80;102673.25;6060909;23;20488;-75
2023/02/28 00:49:59;;;;;;;2.70;2.60;;;;;;;-1.81;96.92;102660.84;6085059;23;20035;-73
2023/02/28 00:52:26;;;;;;;2.50;2.40;;;;;;;-2.41;97.20;102549.28;6055710;23;20034;-72
2023/02/28 00:54:52;;;;;;;2.60;2.50;;;;;;;-2.38;97.86;102561.34;6084361;23;20094;-73
2023/02/28 00:57:19;;;;;;;2.45;2.35;;;;;;;-2.27;97.51;102585.69;6039021;23;20041;-76
2023/02/28 00:59:45;;;;;;;2.58;2.47;;;;;;;-2.69;98.72;102529.53;6077339;23;20030;-75
2023/02/28 01:02:12;;;;;;;3.65;2.75;;;;;;;-2.38;98.44;102588.78;6079324;23;20055;-76
2023/02/28 01:04:38;;;;;;;2.90;2.80;;;;;;;-2.24;99.06;102618.34;6080403;23;20029;-75
2023/02/28 01:07:05;;;;;;;2.42;2.33;;;;;;;-1.92;99.70;102681.09;6034249;23;20034;-73
2023/02/28 01:09:31;;;;;;;3.22;3.05;;;;;;;-2.34;100.00;102612.06;6081033;23;20921;-75
2023/02/28 01:11:57;;;;;;;2.80;2.70;;;;;;;-2.21;100.00;102657.03;6028050;23;20053;-72
2023/02/28 01:14:24;;;;;;;2.50;2.40;;;;;;;-2.11;100.00;102671.91;6064852;23;20026;-76
2023/02/28 01:16:51;;;;;;;2.40;2.30;;;;;;;-2.10;100.00;102676.25;6078559;23;20553;-73
2023/02/28 01:19:17;;;;;;;2.83;2.72;;;;;;;-2.49;100.00;102594.41;6081981;23;20116;-72
2023/02/28 01:21:44;;;;;;;2.60;2.50;;;;;;;-1.90;100.00;102684.59;6055693;23;20017;-75
2023/02/28 01:24:10;;;;;;;2.22;2.13;;;;;;;-1.89;100.00;102690.63;6086697;23;20045;-73
2023/02/28 01:26:37;;;;;;;2.60;2.50;;;;;;;-2.50;100.00;102581.53;6053748;23;20081;-74
2023/02/28 01:29:03;;;;;;;2.53;2.42;;;;;;;-3.01;100.00;102489.94;6065379;23;20030;-75
2023/02/28 01:31:30;;;;;;;2.50;2.40;;;;;;;-1.95;100.00;102670.72;6052913;23;20503;-72
2023/02/28 01:33:56;;;;;;;2.97;2.78;;;;;;;-2.50;100.00;102569.56;6082680;23;20568;-74
2023/02/28 01:36:24;;;;;;;2.72;2.53;;;;;;;-1.94;100.00;102666.47;6060769;23;20026;-73
2023/02/28 01:38:51;;;;;;;2.65;2.55;;;;;;;-1.91;100.00;102661.38;6054984;23;20037;-75
2023/02/28 01:41:22;;;;;;;2.40;2.30;;;;;;;-1.81;100.00;102668.56;6049178;23;20046;-73
2023/02/28 01:43:48;;;;;;;2.40;2.30;;;;;;;-1.79;100.00;102664.34;6056055;23;20038;-75
2023/02/28 01:46:15;;;;;;;2.30;2.20;;;;;;;-2.01;100.00;102645.66;6079647;23;20122;-74
2023/02/28 01:48:51;;;;;;;2.40;2.30;;;;;;;-1.91;100.00;102663.97;6081184;23;20061;-73
2023/02/28 01:51:22;;;;;;;2.50;2.40;;;;;;;-2.07;100.00;102631.75;6065505;23;20085;-74
2023/02/28 01:53:53;;;;;;;2.40;2.30;;;;;;;-2.43;100.00;102583.47;6082975;23;20039;-72
2023/02/28 01:56:27;;;;;;;4.05;2.72;;;;;;;-1.98;100.00;102655.19;6061997;23;20405;-74
2023/02/28 01:58:54;;;;;;;2.60;2.50;;;;;;;-2.27;100.00;102607.97;6083092;23;20034;-74
2023/02/28 02:01:22;;;;;;;2.20;2.10;;;;;;;-2.52;100.00;102542.94;6060890;23;20018;-76
2023/02/28 02:03:55;;;;;;;2.42;2.33;;;;;;;-2.26;100.00;102591.72;6083602;23;20078;-76
2023/02/28 02:06:24;;;;;;;2.50;2.40;;;;;;;-1.83;100.00;102647.91;6054939;23;20010;-74
2023/02/28 02:08:52;;;;;;;2.88;2.78;;;;;;;-1.90;100.00;102642.56;6055233;23;20094;-74
2023/02/28 02:11:20;;;;;;;2.60;2.50;;;;;;;-1.98;100.00;102638.84;6078328;23;20027;-74
2023/02/28 02:13:59;;;;;;;2.35;2.25;;;;;;;-2.21;100.00;102597.88;6082134;23;20093;-75
2023/02/28 02:16:37;;;;;;;3.70;3.50;;;;;;;-2.32;100.00;102586.38;6078485;23;20401;-73
2023/02/28 02:19:23;;;;;;;2.33;2.22;;;;;;;-1.88;100.00;102634.06;6082519;23;20504;-76
2023/02/28 02:22:08;;;;;;;2.45;2.35;;;;;;;-1.81;100.00;102646.25;6080161;23;20099;-75
2023/02/28 02:24:57;;;;;;;2.30;2.20;;;;;;;-1.85;100.00;102671.88;6079667;23;20033;-75
2023/02/28 02:27:50;;;;;;;2.70;2.60;;;;;;;-1.91;100.00;102641.66;6025206;23;20022;-73
2023/02/28 02:30:22;;;;;;;2.40;2.30;;;;;;;-2.10;100.00;102619.66;6082953;23;20449;-75
2023/02/28 02:32:49;;;;;;;;;;;;;;;-2.16;100.00;102632.34;6057789;23;20047;-74
2023/02/28 02:35:26;;;;;;;2.20;2.10;;;;;;;-2.79;100.00;102545.47;6084149;23;19914;-74
2023/02/28 02:38:32;;;;;;;2.60;2.50;;;;;;;-2.75;100.00;102549.03;6082106;23;20010;-73
2023/02/28 02:41:33;;;;;;;2.40;2.30;;;;;;;-2.28;100.00;102629.38;6081359;23;20020;-74
2023/02/28 02:44:12;;;;;;;2.30;2.20;;;;;;;-2.63;100.00;102573.44;6052411;23;20021;-72
2023/02/28 02:46:43;;;;;;;2.72;2.60;;;;;;;-2.53;100.00;102581.44;6078427;23;20025;-72
2023/02/28 02:49:17;;;;;;;2.55;2.45;;;;;;;-2.33;100.00;102613.78;6082493;23;20025;-72
2023/02/28 02:51:46;;;;;;;2.60;2.50;;;;;;;-2.67;100.00;102558.72;6077463;23;20032;-75
2023/02/28 02:54:28;;;;;;;2.10;2.00;;;;;;;-2.46;100.00;102612.53;6034352;23;20126;-73
2023/02/28 02:56:58;;;;;;;2.40;2.30;;;;;;;-2.83;100.00;102569.31;6078072;23;20032;-75
2023/02/28 02:59:28;;;;;;;3.15;2.90;;;;;;;-3.06;100.00;102532.59;6048100;23;20019;-76
2023/02/28 03:02:01;;;;;;;2.80;2.70;;;;;;;-3.17;100.00;102528.78;6078633;23;20041;-75
2023/02/28 03:04:34;;;;;;;2.67;2.58;;;;;;;-3.21;100.00;102533.84;6062778;23;20073;-76
2023/02/28 03:07:01;;;;;;;2.50;2.40;;;;;;;-2.87;100.00;102604.31;6049745;23;20030;-73
2023/02/28 03:09:27;;;;;;;3.00;2.67;;;;;;;-2.98;100.00;102607.34;6055680;23;20018;-76
2023/02/28 03:11:56;;;;;;;2.83;2.72;;;;;;;-3.33;100.00;102563.34;6050644;23;20751;-74
2023/02/28 03:14:22;;;;;;;2.20;2.10;;;;;;;-3.12;100.00;102601.75;6052823;23;20050;-72
2023/02/28 03:17:20;;;;;;;3.60;2.72;;;;;;;-3.14;100.00;102601.69;6079866;23;20022;-77
2023/02/28 03:20:13;;;;;;;2.42;2.33;;;;;;;-3.72;100.00;102508.09;6078321;23;20502;-73
2023/02/28 03:22:52;;;;;;;2.90;2.70;;;;;;;-3.01;100.00;102608.09;6077722;23;21002;-74
2023/02/28 03:25:37;;;;;;;4.03;2.90;;;;;;;-3.59;100.00;102516.22;6079290;23;20034;-74
2023/02/28 03:28:17;;;;;;;2.63;2.53;;;;;;;-3.47;100.00;102537.19;6079701;23;20053;-76
2023/02/28 03:31:19;;;;;;;2.10;2.00;;;;;;;-3.43;100.00;102546.72;6058113;23;20172;-77
2023/02/28 03:33:58;;;;;;;2.28;2.17;;;;;;;-3.70;100.00;102518.41;6019332;23;20022;-75
2023/02/28 03:36:29;;;;;;;2.40;2.30;;;;;;;-3.82;100.00;102506.00;6081664;23;20437;-76
2023/02/28 03:39:05;;;;;;;2.63;2.53;;;;;;;-4.05;100.00;102456.44;6084888;23;20018;-75
2023/02/28 03:41:41;;;;;;;2.63;2.53;;;;;;;-3.73;100.00;102520.84;6061993;23;20042;-75
2023/02/28 03:44:15;;;;;;;3.72;3.00;;;;;;;-5.35;100.00;102256.16;6056316;23;20024;-74
2023/02/28 03:46:52;;;;;;;2.40;2.30;;;;;;;-3.83;100.00;102519.66;6083977;23;20021;-73
2023/02/28 03:49:24;;;;;;;9.70;9.23;;;;;;;-3.69;100.00;102548.38;6015996;23;20299;-74
2023/02/28 03:51:53;;;;;;;2.67;2.58;;;;;;;-3.41;100.00;102601.56;6055095;23;20629;-75
2023/02/28 03:54:28;;;;;;;2.78;2.67;;;;;;;-3.90;100.00;102521.13;6085199;23;20026;-71
2023/02/28 03:57:30;;;;;;;2.58;2.47;;;;;;;-3.45;100.00;102605.72;6055338;23;20030;-72
2023/02/28 04:00:06;;;;;;;2.90;2.70;;;;;;;-3.89;100.00;102528.00;6036520;23;20041;-75
2023/02/28 04:02:33;;;;;;;2.10;2.00;;;;;;;-3.44;100.00;102588.63;6084311;23;20022;-74
2023/02/28 04:05:00;;;;;;;2.65;2.55;;;;;;;-3.49;100.00;102587.56;6057214;23;20037;-75
2023/02/28 04:07:30;;;;;;;2.35;2.25;;;;;;;-3.27;100.00;102607.19;6054119;23;20032;-73
2023/02/28 04:09:57;;;;;;;2.40;2.30;;;;;;;-3.48;100.00;102594.47;6084887;23;20140;-72
2023/02/28 04:12:25;;;;;;;2.60;2.50;;;;;;;-3.68;100.00;102534.75;6063401;23;20029;-76
2023/02/28 04:14:51;;;;;;;2.25;2.15;;;;;;;-3.69;100.00;102544.13;6065020;23;20430;-76
2023/02/28 04:17:18;;;;;;;2.58;2.47;;;;;;;-3.22;100.00;102598.84;6083454;23;20028;-74
2023/02/28 04:19:44;;;;;;;2.22;2.13;;;;;;;-3.00;100.00;102622.72;6082182;23;20017;-73
2023/02/28 04:22:11;;;;;;;2.58;2.47;;;;;;;-2.98;100.00;102615.06;6067026;23;20018;-76
2023/02/28 04:24:41;;;;;;;2.42;2.33;;;;;;;-3.22;100.00;102578.28;6084320;23;20029;-75
2023/02/28 04:27:08;;;;;;;2.95;2.75;;;;;;;-3.01;100.00;102623.50;6055348;23;20159;-73
2023/02/28 04:29:35;;;;;;;2.17;2.08;;;;;;;-3.00;100.00;102622.72;6057410;23;20022;-74
2023/02/28 04:32:02;;;;;;;2.40;2.30;;;;;;;-3.44;100.00;102545.88;6076702;23;20099;-72
2023/02/28 04:34:31;;;;;;;3.38;3.25;;;;;;;-3.36;100.00;102568.38;6085460;23;20040;-74
2023/02/28 04:37:00;;;;;;;2.90;2.80;;;;;;;-2.94;100.00;102625.47;6037661;23;20056;-74
2023/02/28 04:39:38;;;;;;;2.40;2.30;;;;;;;-2.91;100.00;102625.56;6083021;23;20057;-75
2023/02/28 04:42:05;;;;;;;2.70;2.60;;;;;;;-3.14;100.00;102585.41;6050926;23;20030;-75
2023/02/28 04:44:32;;;;;;;2.50;2.40;;;;;;;-3.23;100.00;102578.22;6063309;23;20030;-74
2023/02/28 04:46:58;;;;;;;2.97;2.88;;;;;;;-3.44;100.00;102573.22;6081660;23;20030;-75
2023/02/28 04:49:25;;;;;;;2.33;2.22;;;;;;;-3.63;100.00;102539.22;6075535;23;20142;-74
2023/02/28 04:51:52;;;;;;;2.58;2.47;;;;;;;-3.59;100.00;102558.13;6078423;23;20040;-73
2023/02/28 04:54:19;;;;;;;2.50;2.40;;;;;;;-3.78;100.00;102512.13;6078483;23;20244;-74
2023/02/28 04:56:45;;;;;;;3.67;3.45;;;;;;;-3.09;100.00;102625.81;6081415;23;20760;-75
2023/02/28 04:59:12;;;;;;;2.83;2.70;;;;;;;-3.36;100.00;102568.38;6047483;23;20378;-73
2023/02/28 05:01:38;;;;;;;2.67;2.58;;;;;;;-3.26;100.00;102603.81;6053597;23;20344;-73
2023/02/28 05:04:04;;;;;;;2.92;2.83;;;;;;;-3.80;100.00;102509.50;6063754;23;20055;-72
2023/02/28 05:06:33;;;;;;;2.53;2.42;;;;;;;-3.11;100.00;102630.00;6054052;23;20018;-73
2023/02/28 05:09:00;;;;;;;2.60;2.50;;;;;;;-3.78;100.00;102520.69;6081394;23;20033;-72
2023/02/28 05:11:35;;;;;;;2.30;2.20;;;;;;;-3.97;100.00;102482.38;6055597;23;20145;-74
2023/02/28 05:14:10;;;;;;;2.85;2.75;;;;;;;-3.13;100.00;102620.53;6079123;23;20041;-72
2023/02/28 05:16:36;;;;;;;2.60;2.40;;;;;;;-4.43;100.00;102407.22;6058296;23;20022;-74
2023/02/28 05:19:03;;;;;;;2.38;2.28;;;;;;;-3.21;100.00;102615.09;6077429;23;20034;-73
2023/02/28 05:21:32;;;;;;;2.35;2.25;;;;;;;-3.77;100.00;102530.13;6023830;23;20033;-74
2023/02/28 05:24:09;;;;;;;2.38;2.28;;;;;;;-3.51;100.00;102589.22;6076763;23;20378;-74
2023/02/28 05:26:41;;;;;;;5.40;2.72;;;;;;;-3.44;100.00;102616.88;6080387;23;20034;-74
2023/02/28 05:29:11;;;;;;;2.20;2.10;;;;;;;-3.47;100.00;102621.88;6053802;23;20432;-72
2023/02/28 05:31:37;;;;;;;2.63;2.53;;;;;;;-3.50;100.00;102621.78;6079173;23;20021;-75
2023/02/28 05:34:04;;;;;;;2.40;2.30;;;;;;;-3.98;100.00;102534.50;6066041;23;20037;-75
2023/02/28 05:36:31;;;;;;;2.22;2.13;;;;;;;-3.55;100.00;102603.63;6077183;23;20030;-75
2023/02/28 05:38:57;;;;;;;2.75;2.65;;;;;;;-4.78;100.00;102390.53;6080041;23;20065;-74
2023/02/28 05:41:25;;;;;;;2.13;2.03;;;;;;;-3.55;100.00;102610.47;6065041;23;20018;-75
2023/02/28 05:43:52;;;;;;;3.10;2.90;;;;;;;-3.44;100.00;102614.31;6052821;23;20030;-72
2023/02/28 05:46:19;;;;;;;2.20;2.10;;;;;;;-3.47;100.00;102609.94;6059318;23;20465;-74
2023/02/28 05:48:47;;;;;;;2.35;2.25;;;;;;;-3.97;100.00;102538.78;6079317;23;20101;-74
2023/02/28 05:51:14;;;;;;;2.30;2.20;;;;;;;-3.67;100.00;102582.66;6080687;23;20298;-75
2023/02/28 05:53:40;;;;;;;2.30;2.20;;;;;;;-3.47;100.00;102614.16;6081723;23;20085;-75
2023/02/28 05:56:09;;;;;;;2.63;2.53;;;;;;;-3.46;100.00;102613.38;6062516;23;20070;-75
2023/02/28 05:58:35;;;;;;;2.40;2.30;;;;;;;-3.95;100.00;102550.84;6035630;23;20090;-73
2023/02/28 06:01:34;;;;;;;2.72;2.63;;;;;;;-3.58;100.00;102615.50;6079873;23;20026;-72
2023/02/28 06:04:02;;;;;;;2.25;2.15;;;;;;;-4.29;100.00;102515.38;6052654;23;20046;-74
2023/02/28 06:06:33;;;;;;;2.40;2.30;;;;;;;-3.78;100.00;102597.66;6058302;23;20034;-72
2023/02/28 06:09:04;;;;;;;2.40;2.30;;;;;;;-4.06;100.00;102572.66;6062107;23;20029;-73
2023/02/28 06:11:31;;;;;;;2.38;2.28;;;;;;;-3.82;100.00;102609.50;6089216;23;20366;-74
2023/02/28 06:14:00;;;;;;;2.40;2.30;;;;;;;-3.88;100.00;102603.25;6054965;23;20357;-73
2023/02/28 06:16:30;;;;;;;3.03;2.92;;;;;;;-3.85;100.00;102617.09;6077173;23;20038;-72
2023/02/28 06:19:02;;;;;;;3.45;2.60;;;;;;;-3.93;100.00;102584.25;6077440;23;20317;-74
2023/02/28 06:21:29;;;;;;;2.55;2.45;;;;;;;-4.01;100.00;102571.13;6058783;23;20154;-75
2023/02/28 06:23:57;;;;;;;2.42;2.33;;;;;;;-3.51;100.00;102628.56;6075925;23;20185;-74
2023/02/28 06:26:25;;;;;;;2.35;2.25;;;;;;;-3.99;100.00;102545.53;6075781;23;20017;-74
2023/02/28 06:28:51;;;;;;;2.55;2.45;;;;;;;-3.60;100.00;102615.44;6077344;23;20025;-72
2023/02/28 06:31:18;;;;;;;2.90;2.80;;;;;;;-3.44;100.00;102628.00;6050688;23;20500;-72
2023/02/28 06:33:46;;;;;;;2.55;2.45;;;;;;;-3.41;100.00;102625.56;6077514;23;20087;-72
2023/02/28 06:36:13;;;;;;;2.50;2.40;;;;;;;-3.35;100.00;102627.44;6053582;23;20013;-72
2023/02/28 06:38:40;;;;;;;3.00;2.80;;;;;;;-5.07;100.00;102339.97;6078931;23;20381;-71
2023/02/28 06:41:08;;;;;;;2.38;2.28;;;;;;;-3.97;100.00;102531.09;6054295;23;20018;-72
2023/02/28 06:43:39;;;;;;;3.17;2.95;;;;;;;-3.52;100.00;102602.88;6078340;23;20025;-72
2023/02/28 06:46:07;;;;;;;2.47;2.38;;;;;;;-3.35;100.00;102613.75;6047230;23;20097;-71
2023/02/28 06:48:34;;;;;;;2.33;2.22;;;;;;;-3.85;100.00;102537.56;6083622;23;20030;-71
2023/02/28 06:51:11;;;;;;;7.13;2.90;;;;;;;-3.18;100.00;102632.34;6064305;23;20450;-70
2023/02/28 06:53:38;;;;;;;3.10;2.97;;;;;;;-3.16;99.45;102654.69;6055711;23;20022;-71
2023/02/28 06:56:07;;;;;;;2.50;2.40;;;;;;;-3.07;97.90;102636.13;6024918;23;20052;-73
2023/02/28 06:58:34;;;;;;;2.80;2.70;;;;;;;-3.08;96.71;102625.00;6064289;23;20115;-71
2023/02/28 07:01:01;;;;;;;2.30;2.20;;;;;;;-3.03;96.66;102614.88;6077727;23;19998;-74
2023/02/28 07:03:28;;;;;;;3.25;3.05;;;;;;;-2.88;96.14;102633.41;6054171;23;20049;-72
2023/02/28 07:05:56;;;;;;;2.25;2.15;;;;;;;-2.98;95.70;102608.22;6080858;23;20037;-74
2023/02/28 07:08:28;;;;;;;2.20;2.10;;;;;;;-3.18;95.07;102568.16;6078617;23;20154;-74
2023/02/28 07:10:55;;;;;;;2.20;2.10;;;;;;;-2.96;94.62;102575.75;6062933;23;20115;-71
2023/02/28 07:13:22;;;;;;;2.20;2.10;;;;;;;-2.83;92.97;102572.78;6084019;23;20038;-74
2023/02/28 07:16:00;;;;;;;2.50;2.40;;;;;;;-2.23;92.58;102644.09;6063173;23;20025;-69
2023/02/28 07:18:27;;;;;;;1.77;1.77;;;;;;;-2.33;91.49;102608.63;6061576;23;20028;-74
2023/02/28 07:20:54;;;;;;;2.17;2.08;;;;;;;-2.51;90.16;102552.38;6056066;23;20041;-72
2023/02/28 07:23:21;;;;;;;2.50;2.40;;;;;;;-1.96;89.56;102632.09;6060291;23;20547;-71
2023/02/28 07:25:49;;;;;;;2.30;2.20;;;;;;;-1.97;88.26;102615.75;6058159;23;20025;-75
2023/02/28 07:28:15;;;;;;;4.30;2.63;;;;;;;-1.74;87.33;102619.03;6086242;23;20087;-71
2023/02/28 07:30:42;;;;;;;2.63;2.53;;;;;;;-1.65;87.10;102624.44;6084034;23;20021;-73
2023/02/28 07:33:11;;;;;;;2.55;2.45;;;;;;;-1.52;84.64;102619.66;6032227;23;20030;-69
2023/02/28 07:35:37;;;;;;;2.88;2.78;;;;;;;-1.87;83.98;102530.28;6082683;23;20055;-73
2023/02/28 07:38:04;;;;;;;2.42;2.33;;;;;;;-1.92;82.71;102498.41;6054100;23;20029;-71
2023/02/28 07:40:30;;;;;;;2.50;2.40;;;;;;;-1.25;81.37;102586.94;6029022;23;20113;-71
2023/02/28 07:42:59;;;;;;;2.75;2.65;;;;;;;-1.16;80.35;102573.44;6054784;23;20026;-72
2023/02/28 07:45:28;;;;;;;3.05;2.90;;;;;;;-1.09;78.62;102554.72;6052416;23;20037;-75
2023/02/28 07:47:55;;;;;;;2.45;2.35;;;;;;;-1.11;77.98;102542.63;6080942;23;20178;-74
2023/02/28 07:50:24;;;;;;;3.58;3.47;;;;;;;-1.31;77.57;102500.91;6079895;23;20457;-70
2023/02/28 07:52:52;;;;;;;2.65;2.55;;;;;;;-1.31;77.83;102486.31;6064436;23;20105;-71
2023/02/28 07:55:19;;;;;;;3.20;3.10;;;;;;;-1.04;75.69;102500.75;6041734;23;20045;-72
2023/02/28 07:57:45;;;;;;;3.00;2.80;;;;;;;-0.79;74.33;102511.66;6074043;23;20025;-71
2023/02/28 08:00:13;;;;;;;2.83;2.63;;;;;;;-0.66;74.40;102523.97;6076218;23;20041;-72
2023/02/28 08:02:40;;;;;;;2.70;2.60;;;;;;;-0.55;73.21;102522.53;6075600;23;20496;-73
2023/02/28 08:05:07;;;;;;;2.90;2.70;;;;;;;-0.49;72.93;102507.19;6079324;23;20030;-72
2023/02/28 08:07:34;;;;;;;2.63;2.53;;;;;;;-0.68;72.12;102449.19;6062129;23;20227;-71
2023/02/28 08:10:00;;;;;;;2.80;2.70;;;;;;;-0.68;70.61;102414.78;6080040;23;20022;-70
2023/02/28 08:12:27;;;;;;;3.05;2.85;;;;;;;-0.40;70.95;102447.22;6031320;23;20206;-72
2023/02/28 08:14:53;;;;;;;3.20;3.00;;;;;;;-0.51;70.12;102404.84;6080577;23;20077;-73
2023/02/28 08:17:19;;;;;;;2.50;2.40;;;;;;;-0.33;69.85;102453.38;6079761;23;20101;-72
2023/02/28 08:19:46;;;;;;;2.70;2.60;;;;;;;-0.44;69.31;102392.13;6078626;23;20038;-72
2023/02/28 08:22:13;;;;;;;2.60;2.50;;;;;;;0.13;67.83;102441.38;6051373;23;20075;-74
2023/02/28 08:24:42;;;;;;;2.60;2.50;;;;;;;0.23;68.16;102439.84;6074968;23;20046;-71
2023/02/28 08:27:09;;;;;;;3.53;3.33;;;;;;;-0.94;67.48;102220.91;6025524;23;20078;-72
2023/02/28 08:29:39;;;;;;;3.20;3.00;;;;;;;-0.04;66.99;102367.09;6060595;23;20024;-73
2023/02/28 08:32:06;;;;;;;2.80;2.70;;;;;;;0.52;65.98;102401.63;6078782;23;20136;-72
2023/02/28 08:34:45;;;;;;;2.67;2.58;;;;;;;0.73;62.69;102326.19;6080229;23;20030;-72
2023/02/28 08:37:13;;;;;;;2.70;2.60;;;;;;;-0.35;62.02;102097.38;6049887;23;20022;-73
2023/02/28 08:39:39;;;;;;;2.72;2.60;;;;;;;0.80;59.52;102178.09;6081129;23;20029;-71
2023/02/28 08:42:06;;;;;;;2.65;2.55;;;;;;;0.53;57.68;102073.59;6056351;23;20025;-71
2023/02/28 08:44:33;;;;;;;3.00;2.83;;;;;;;1.08;57.06;102109.47;6056004;23;20496;-71
2023/02/28 08:47:00;;;;;;;2.80;2.70;;;;;;;0.78;56.41;102043.75;6079916;23;20026;-72
2023/02/28 08:49:26;;;;;;;3.40;3.20;;;;;;;1.11;55.89;102044.03;6062255;23;20185;-71
2023/02/28 08:51:53;;;;;;;2.58;2.47;;;;;;;1.22;54.38;102010.50;6052940;23;20479;-72
2023/02/28 08:54:21;;;;;;;2.60;2.50;;;;;;;1.30;54.16;101970.03;6054064;23;20307;-72
2023/02/28 08:56:47;;;;;;;2.63;2.53;;;;;;;1.28;53.16;101949.31;6056506;23;20032;-72
2023/02/28 08:59:14;;;;;;;2.80;2.70;;;;;;;1.41;53.08;101964.94;6056008;23;20022;-70
2023/02/28 09:01:41;;;;;;;2.83;2.72;;;;;;;1.52;53.18;101977.06;6026020;23;20046;-71
2023/02/28 09:04:09;;;;;;;2.50;2.40;;;;;;;1.08;52.41;101845.78;6055314;23;20515;-71
2023/02/28 09:06:36;;;;;;;3.83;3.63;;;;;;;1.49;51.85;101855.47;6053895;23;20026;-73
2023/02/28 09:09:05;;;;;;;3.00;2.90;;;;;;;1.50;52.29;101890.81;6055532;23;20030;-72
2023/02/28 09:11:32;;;;;;;3.60;3.40;;;;;;;1.45;52.54;101917.56;6032597;23;20053;-73
2023/02/28 09:14:03;;;;;;;3.38;3.17;;;;;;;1.68;50.83;101877.09;6078688;23;20427;-71
2023/02/28 09:16:31;;;;;;;3.00;2.90;;;;;;;1.93;51.18;101897.91;6022498;23;20093;-72
2023/02/28 09:18:58;;;;;;;2.90;2.80;;;;;;;2.06;51.79;101925.53;6054908;23;20452;-71
2023/02/28 09:21:25;;;;;;;3.35;3.15;;;;;;;1.97;50.69;101847.88;6032367;23;20484;-74
2023/02/28 09:23:52;;;;;;;3.30;2.97;;;;;;;1.94;49.54;101796.91;6080646;23;20026;-72
2023/02/28 09:26:24;;;;;;;2.88;2.78;;;;;;;1.75;48.40;101663.22;6048931;23;20014;-72
2023/02/28 09:28:51;;;;;;;2.80;2.70;;;;;;;2.22;47.50;101705.44;6054100;23;20091;-73
2023/02/28 09:31:24;;;;;;;3.10;2.90;;;;;;;2.15;47.99;101717.56;6029833;23;20018;-72
2023/02/28 09:33:53;;;;;;;3.00;2.90;;;;;;;2.25;47.31;101689.91;6077603;23;20033;-71
2023/02/28 09:36:21;;;;;;;3.45;3.25;;;;;;;2.36;47.16;101717.50;6035911;23;20206;-72
2023/02/28 09:38:52;;;;;;;2.80;2.70;;;;;;;2.34;47.25;101706.28;6076236;23;20066;-72
2023/02/28 09:41:22;;;;;;;3.28;3.08;;;;;;;2.37;47.86;101732.19;6027996;23;20034;-70
2023/02/28 09:43:55;;;;;;;3.55;3.35;;;;;;;2.25;49.04;101755.53;6078925;23;20057;-69
2023/02/28 09:46:33;;;;;;;3.55;3.38;;;;;;;2.69;47.88;101774.47;6077427;23;20119;-73
2023/02/28 09:49:06;;;;;;;2.58;2.47;;;;;;;2.60;48.37;101768.41;6043736;23;20403;-71
2023/02/28 09:51:43;;;;;;;2.80;2.70;;;;;;;2.13;46.83;101613.97;6075869;23;20025;-73
2023/02/28 09:54:19;;;;;;;2.90;2.80;;;;;;;2.67;47.43;101680.31;6046158;23;20041;-74
2023/02/28 09:56:54;;;;;;;3.00;2.90;;;;;;;2.81;47.41;101694.06;6059134;23;20018;-72
2023/02/28 09:59:54;;;;;;;2.80;2.70;;;;;;;2.05;46.96;101544.97;6049554;23;20081;-73
2023/02/28 10:02:48;;;;;;;14.80;2.70;;;;;;;2.37;47.05;101581.09;6055608;23;20034;-73
2023/02/28 10:05:21;;;;;;;2.53;2.42;;;;;;;2.53;47.13;101664.81;6075238;23;20125;-71
2023/02/28 10:07:58;;;;;;;;;;;;;;;2.67;47.84;101727.81;6072088;23;20089;-72
2023/02/28 10:10:38;;;;;;;3.00;2.88;;;;;;;2.56;47.47;101686.34;6054369;23;19910;-76
2023/02/28 10:13:13;;;;;;;2.85;2.75;;;;;;;2.46;48.68;101712.31;6075408;23;20041;-71
2023/02/28 10:15:41;;;;;;;2.90;2.70;;;;;;;2.41;47.46;101629.44;6078493;23;20022;-72
2023/02/28 10:18:15;;;;;;;3.13;3.03;;;;;;;2.80;47.79;101671.59;6076565;23;20301;-72
2023/02/28 10:20:43;;;;;;;3.35;3.15;;;;;;;2.88;47.22;101649.09;6050198;23;20087;-73
2023/02/28 10:23:27;;;;;;;3.33;3.10;;;;;;;2.82;47.55;101619.75;6078811;23;20030;-73
2023/02/28 10:26:15;;;;;;;3.25;3.15;;;;;;;2.57;47.62;101669.97;6047364;23;20192;-71
2023/02/28 10:28:43;;;;;;;3.40;3.20;;;;;;;2.73;47.94;101680.28;6077728;23;20536;-72
2023/02/28 10:31:18;;;;;;;2.88;2.78;;;;;;;2.84;48.70;101745.03;6078955;23;20010;-75
2023/02/28 10:33:45;;;;;;;3.00;2.88;;;;;;;2.75;48.76;101743.34;6079704;23;20034;-74
2023/02/28 10:36:16;;;;;;;3.20;3.10;;;;;;;2.89;48.49;101727.75;6075960;23;20088;-73
2023/02/28 10:38:44;;;;;;;3.03;2.92;;;;;;;2.98;50.06;101806.34;6076724;23;20017;-69
2023/02/28 10:41:14;;;;;;;3.33;3.13;;;;;;;3.03;49.68;101777.81;6050537;23;20025;-73
2023/02/28 10:43:47;;;;;;;3.22;3.03;;;;;;;2.87;48.72;101707.00;6078282;23;20042;-72
2023/02/28 10:46:25;;;;;;;3.50;3.30;;;;;;;3.12;49.65;101774.31;6049449;23;20026;-71
2023/02/28 10:49:05;;;;;;;2.95;2.85;;;;;;;3.43;49.40;101785.44;6076590;23;20025;-72
2023/02/28 10:51:38;;;;;;;3.45;3.15;;;;;;;3.11;48.13;101679.25;6050159;23;20041;-72
2023/02/28 10:54:05;;;;;;;;;;;;;;;3.46;49.26;101833.84;6051274;23;20033;-70
2023/02/28 10:56:32;;;;;;;3.05;2.95;;;;;;;3.25;49.30;101804.53;6029012;23;20368;-73
2023/02/28 10:59:00;;;;;;;3.08;2.97;;;;;;;2.83;50.34;101731.22;6051250;23;20100;-73
2023/02/28 11:01:30;;;;;;;3.33;3.17;;;;;;;2.93;49.09;101726.88;6075651;23;20357;-73
2023/02/28 11:03:58;;;;;;;3.60;3.35;;;;;;;3.12;49.54;101744.06;6079402;23;20470;-72
2023/02/28 11:06:34;;;;;;;2.90;2.80;;;;;;;2.77;49.40;101664.69;6075875;23;20031;-69
2023/02/28 11:09:02;;;;;;;2.80;2.70;;;;;;;3.14;48.86;101711.19;6051168;23;20022;-71
2023/02/28 11:11:40;;;;;;;3.75;3.55;;;;;;;3.18;50.16;101746.63;6075647;23;20123;-72
2023/02/28 11:14:20;;;;;;;3.28;3.08;;;;;;;2.08;49.76;101594.13;6076952;23;20279;-71
2023/02/28 11:16:47;;;;;;;3.15;3.05;;;;;;;2.68;50.37;101716.56;6056177;23;20259;-73
2023/02/28 11:19:22;;;;;;;3.40;3.20;;;;;;;2.40;50.34;101682.94;6076321;23;20331;-71
2023/02/28 11:21:55;;;;;;;2.92;2.83;;;;;;;2.84;51.17;101839.22;6021472;23;20018;-74
2023/02/28 11:24:30;;;;;;;2.85;2.75;;;;;;;2.97;51.45;101840.94;6023936;23;20030;-71
2023/02/28 11:26:56;;;;;;;2.97;2.88;;;;;;;2.58;50.29;101717.47;6048306;23;20436;-71
2023/02/28 11:29:24;;;;;;;3.58;3.35;;;;;;;2.81;51.03;101787.38;6073028;23;20030;-74
2023/02/28 11:32:00;;;;;;;3.17;3.03;;;;;;;3.04;51.22;101810.66;6051674;23;20017;-72
2023/02/28 11:34:28;;;;;;;3.53;3.22;;;;;;;3.07;50.57;101853.88;6050751;23;20017;-72
2023/02/28 11:36:56;;;;;;;3.88;3.55;;;;;;;2.56;52.24;101771.88;6073722;23;20051;-72
2023/02/28 11:39:25;;;;;;;3.30;3.10;;;;;;;2.40;51.18;101747.72;6078072;23;20021;-71